createdAt,value
2023-05-15T00:02:38.762Z,21.81
2023-05-15T00:07:41.952Z,21.80
2023-05-15T00:12:46.139Z,21.79
2023-05-15T00:17:49.032Z,21.78
2023-05-15T00:22:52.077Z,21.78
2023-05-15T00:27:56.230Z,21.77
2023-05-15T00:32:59.127Z,21.77
2023-05-15T00:38:02.003Z,21.76
2023-05-15T00:43:07.350Z,21.75
2023-05-15T00:48:11.130Z,21.74
2023-05-15T00:53:13.998Z,21.73
2023-05-15T00:58:18.300Z,21.73
2023-05-15T01:03:21.641Z,21.71
2023-05-15T01:08:27.903Z,21.70
2023-05-15T01:13:32.113Z,21.70
2023-05-15T01:18:35.087Z,21.67
2023-05-15T01:23:47.363Z,21.69
2023-05-15T01:28:56.995Z,21.67
2023-05-15T01:34:04.091Z,21.66
2023-05-15T01:39:08.322Z,21.66
2023-05-15T01:44:18.092Z,21.63
2023-05-15T01:49:25.917Z,21.64
2023-05-15T01:54:29.926Z,21.65
2023-05-15T01:59:34.494Z,21.62
2023-05-15T02:04:37.949Z,21.61
2023-05-15T02:09:41.240Z,21.61
2023-05-15T02:14:46.166Z,21.62
2023-05-15T02:19:49.057Z,21.60
2023-05-15T02:24:51.920Z,21.60
2023-05-15T02:30:07.516Z,21.58
2023-05-15T02:35:18.499Z,21.57
2023-05-15T02:40:22.109Z,21.55
2023-05-15T02:45:26.954Z,21.56
2023-05-15T02:50:30.115Z,21.55
2023-05-15T02:55:32.895Z,21.53
2023-05-15T03:00:37.162Z,21.54
2023-05-15T03:05:40.449Z,21.53
2023-05-15T03:10:43.338Z,21.52
2023-05-15T03:15:47.503Z,21.52
2023-05-15T03:20:53.244Z,21.49
2023-05-15T03:25:56.083Z,21.49
2023-05-15T03:31:00.304Z,21.51
2023-05-15T03:36:03.429Z,21.47
2023-05-15T03:41:06.285Z,21.46
2023-05-15T03:46:10.451Z,21.48
2023-05-15T03:51:13.377Z,21.46
2023-05-15T03:56:16.254Z,21.46
2023-05-15T04:01:20.440Z,21.45
2023-05-15T04:06:23.794Z,21.44
2023-05-15T04:11:26.935Z,21.44
2023-05-15T04:16:31.173Z,21.44
2023-05-15T04:21:34.146Z,21.44
2023-05-15T04:26:37.815Z,21.42
2023-05-15T04:31:42.072Z,21.43
2023-05-15T04:36:44.989Z,21.42
2023-05-15T04:41:47.859Z,21.43
2023-05-15T04:46:52.058Z,21.43
2023-05-15T04:51:55.087Z,21.41
2023-05-15T04:56:57.938Z,21.42
2023-05-15T05:02:03.870Z,21.43
2023-05-15T05:07:06.815Z,21.42
2023-05-15T05:12:10.124Z,21.42
2023-05-15T05:17:15.226Z,21.42
2023-05-15T05:22:18.053Z,21.44
2023-05-15T05:27:21.805Z,21.44
2023-05-15T05:32:26.172Z,21.44
2023-05-15T05:37:29.024Z,21.44
2023-05-15T05:42:31.866Z,21.44
2023-05-15T05:47:36.127Z,21.46
2023-05-15T05:52:38.967Z,21.48
2023-05-15T05:57:43.302Z,21.48
2023-05-15T06:02:47.738Z,21.49
2023-05-15T06:07:50.973Z,21.49
2023-05-15T06:12:53.803Z,21.49
2023-05-15T06:17:57.994Z,21.51
2023-05-15T06:23:00.865Z,21.52
2023-05-15T06:28:03.701Z,21.54
2023-05-15T06:33:07.985Z,21.56
2023-05-15T06:38:10.838Z,21.58
2023-05-15T06:43:13.650Z,21.58
2023-05-15T06:48:18.922Z,21.31
2023-05-15T06:53:21.852Z,21.16
2023-05-15T06:58:25.579Z,21.12
2023-05-15T07:03:29.805Z,21.62
2023-05-15T07:08:32.624Z,21.93
2023-05-15T07:13:35.798Z,21.68
2023-05-15T07:18:40.111Z,21.52
2023-05-15T07:23:43.094Z,21.47
2023-05-15T07:28:46.252Z,21.98
2023-05-15T07:33:50.677Z,22.17
2023-05-15T07:38:53.543Z,22.18
2023-05-15T07:43:56.367Z,22.22
2023-05-15T07:49:00.565Z,22.06
2023-05-15T07:54:04.295Z,22.03
2023-05-15T07:59:07.681Z,22.11
2023-05-15T08:04:13.109Z,22.17
2023-05-15T08:09:16.044Z,22.26
2023-05-15T08:14:18.964Z,22.29
2023-05-15T08:19:23.902Z,22.23
2023-05-15T08:24:26.793Z,22.28
2023-05-15T08:29:29.587Z,22.39
2023-05-15T08:34:33.762Z,22.41
2023-05-15T08:39:36.614Z,22.58
2023-05-15T08:44:40.302Z,22.65
2023-05-15T08:49:53.266Z,22.67
2023-05-15T08:54:56.227Z,22.79
2023-05-15T08:59:59.137Z,22.77
2023-05-15T09:05:03.995Z,22.81
2023-05-15T09:10:07.915Z,22.68
2023-05-15T09:15:12.322Z,22.70
2023-05-15T09:20:28.398Z,22.80
2023-05-15T09:25:37.581Z,22.73
2023-05-15T09:30:43.062Z,22.75
2023-05-15T09:35:47.313Z,22.77
2023-05-15T09:40:50.437Z,22.83
2023-05-15T09:45:53.613Z,22.93
2023-05-15T09:50:57.923Z,23.12
2023-05-15T09:56:00.809Z,23.02
2023-05-15T10:01:04.261Z,23.18
2023-05-15T10:06:10.210Z,23.03
2023-05-15T10:11:13.054Z,23.04
2023-05-15T10:16:15.965Z,23.14
2023-05-15T10:21:21.280Z,23.05
2023-05-15T10:26:25.649Z,22.98
2023-05-15T10:31:30.270Z,22.83
2023-05-15T10:36:36.191Z,22.89
2023-05-15T10:41:40.499Z,22.97
2023-05-15T10:46:43.582Z,23.06
2023-05-15T10:51:47.851Z,23.31
2023-05-15T10:56:52.269Z,23.30
2023-05-15T11:01:55.944Z,23.41
2023-05-15T11:07:13.275Z,23.37
2023-05-15T11:12:16.171Z,23.42
2023-05-15T11:17:19.448Z,23.23
2023-05-15T11:22:27.894Z,23.48
2023-05-15T11:27:31.855Z,23.58
2023-05-15T11:33:03.031Z,23.60
2023-05-15T11:38:13.803Z,23.71
2023-05-15T11:43:21.285Z,23.62
2023-05-15T11:48:25.706Z,23.74
2023-05-15T11:53:30.909Z,23.46
2023-05-15T11:58:33.794Z,23.58
2023-05-15T12:03:36.787Z,23.70
2023-05-15T12:08:42.013Z,23.78
2023-05-15T12:13:44.831Z,23.93
2023-05-15T12:18:48.839Z,24.01
2023-05-15T12:24:06.377Z,24.12
2023-05-15T12:29:10.513Z,23.73
2023-05-15T12:34:13.360Z,23.86
2023-05-15T12:39:18.669Z,23.66
2023-05-15T12:44:21.787Z,23.63
2023-05-15T12:49:24.770Z,23.62
2023-05-15T12:54:29.022Z,23.63
2023-05-15T12:59:32.413Z,23.68
2023-05-15T13:04:35.242Z,23.62
2023-05-15T13:09:39.394Z,23.53
2023-05-15T13:14:43.256Z,23.70
2023-05-15T13:19:46.152Z,23.85
2023-05-15T13:24:50.359Z,23.92
2023-05-15T13:29:53.163Z,23.82
2023-05-15T13:34:57.881Z,23.88
2023-05-15T13:40:02.205Z,23.49
2023-05-15T13:45:06.406Z,23.49
2023-05-15T13:50:11.364Z,23.30
2023-05-15T13:55:15.850Z,23.32
2023-05-15T14:00:19.795Z,23.42
2023-05-15T14:05:23.065Z,23.50
2023-05-15T14:10:27.762Z,23.64
2023-05-15T14:15:30.683Z,23.76
2023-05-15T14:20:34.784Z,23.74
2023-05-15T14:25:39.322Z,24.10
2023-05-15T14:30:42.862Z,24.42
2023-05-15T14:35:45.763Z,24.51
2023-05-15T14:40:50.040Z,24.42
2023-05-15T14:45:53.060Z,24.03
2023-05-15T14:50:56.791Z,24.26
2023-05-15T14:56:01.054Z,24.03
2023-05-15T15:01:04.010Z,23.92
2023-05-15T15:06:07.269Z,24.03
2023-05-15T15:11:11.526Z,23.85
2023-05-15T15:16:14.606Z,23.86
2023-05-15T15:21:17.487Z,23.91
2023-05-15T15:26:21.785Z,23.94
2023-05-15T15:31:25.573Z,23.81
2023-05-15T15:36:29.122Z,23.77
2023-05-15T15:41:33.542Z,23.83
2023-05-15T15:46:36.367Z,23.66
2023-05-15T15:51:41.206Z,23.51
2023-05-15T15:56:47.677Z,23.49
2023-05-15T16:01:50.897Z,23.53
2023-05-15T16:06:54.146Z,23.43
2023-05-15T16:11:58.599Z,24.42
2023-05-15T16:17:05.330Z,24.50
2023-05-15T16:22:08.340Z,24.44
2023-05-15T16:27:12.761Z,24.67
2023-05-15T16:32:16.209Z,24.63
2023-05-15T16:37:19.007Z,24.31
2023-05-15T16:42:23.162Z,24.05
2023-05-15T16:47:26.772Z,23.85
2023-05-15T16:52:29.625Z,23.66
2023-05-15T16:57:34.229Z,23.57
2023-05-15T17:02:37.123Z,23.46
2023-05-15T17:07:40.272Z,23.44
2023-05-15T17:12:44.783Z,23.39
2023-05-15T17:17:47.670Z,23.32
2023-05-15T17:22:50.529Z,23.26
2023-05-15T17:27:55.086Z,23.23
2023-05-15T17:32:57.965Z,23.17
2023-05-15T17:38:00.792Z,23.12
2023-05-15T17:43:05.266Z,23.07
2023-05-15T17:48:08.154Z,23.02
2023-05-15T17:53:11.012Z,22.97
2023-05-15T17:58:20.656Z,22.91
2023-05-15T18:03:25.290Z,22.89
2023-05-15T18:08:28.228Z,22.85
2023-05-15T18:13:32.801Z,22.82
2023-05-15T18:18:35.802Z,22.76
2023-05-15T18:23:38.622Z,22.74
2023-05-15T18:28:42.977Z,22.70
2023-05-15T18:33:45.915Z,22.68
2023-05-15T18:38:49.995Z,22.65
2023-05-15T18:43:54.260Z,22.59
2023-05-15T18:48:57.106Z,22.57
2023-05-15T18:53:59.934Z,22.55
2023-05-15T18:59:04.113Z,22.51
2023-05-15T19:04:07.001Z,22.49
2023-05-15T19:09:11.010Z,22.46
2023-05-15T19:14:17.036Z,22.42
2023-05-15T19:19:20.032Z,22.42
2023-05-15T19:24:23.070Z,22.39
2023-05-15T19:29:28.625Z,22.37
2023-05-15T19:34:31.409Z,22.36
2023-05-15T19:39:34.921Z,22.34
2023-05-15T19:44:39.084Z,22.31
2023-05-15T19:49:41.970Z,22.30
2023-05-15T19:54:45.398Z,22.29
2023-05-15T19:59:49.558Z,22.28
2023-05-15T20:04:52.436Z,22.26
2023-05-15T20:09:56.284Z,22.24
2023-05-15T20:15:00.494Z,22.22
2023-05-15T20:20:05.565Z,22.21
2023-05-15T20:25:09.237Z,22.20
2023-05-15T20:30:13.798Z,22.19
2023-05-15T20:35:16.880Z,22.17
2023-05-15T20:40:22.811Z,22.16
2023-05-15T20:45:27.414Z,22.15
2023-05-15T20:50:30.270Z,22.14
2023-05-15T20:55:33.139Z,22.12
2023-05-15T21:00:37.356Z,22.11
2023-05-15T21:05:40.186Z,22.10
2023-05-15T21:10:43.029Z,22.10
2023-05-15T21:15:47.281Z,22.08
2023-05-15T21:20:50.170Z,22.07
2023-05-15T21:25:52.946Z,22.07
2023-05-15T21:30:57.188Z,22.06
2023-05-15T21:36:00.060Z,22.04
2023-05-15T21:41:02.914Z,22.04
2023-05-15T21:46:07.390Z,22.04
2023-05-15T21:51:10.418Z,22.02
2023-05-15T21:56:13.252Z,22.02
2023-05-15T22:01:17.814Z,22.00
2023-05-15T22:06:20.665Z,21.99
2023-05-15T22:11:23.520Z,21.97
2023-05-15T22:16:27.775Z,21.96
2023-05-15T22:21:32.304Z,21.94
2023-05-15T22:26:35.772Z,21.92
2023-05-15T22:31:39.993Z,21.91
2023-05-15T22:36:42.831Z,21.90
2023-05-15T22:41:45.854Z,21.89
2023-05-15T22:46:49.975Z,21.89
2023-05-15T22:51:52.910Z,21.88
2023-05-15T22:56:56.069Z,21.87
2023-05-15T23:02:00.265Z,21.86
2023-05-15T23:07:03.082Z,21.86
2023-05-15T23:12:06.740Z,21.84
2023-05-15T23:17:10.962Z,21.82
2023-05-15T23:22:13.763Z,21.82
2023-05-15T23:27:16.610Z,21.80
2023-05-15T23:32:20.878Z,21.80
2023-05-15T23:37:24.383Z,21.78
2023-05-15T23:42:27.176Z,21.80
2023-05-15T23:47:31.402Z,21.78
2023-05-15T23:52:34.313Z,21.79
2023-05-15T23:57:37.244Z,21.78
